BRU weather

Brussels Airport
Brussels, Brussels-Capital Region, Belgium

Public forecast

Using degrees Celsius for public forecast. Weather courtesy of forecast.io.

Current aviation weather report (METAR) for Brussels Airport

Retrieved 2019/10/23 02:20 UTC (0 seconds ago):

EBBR 230220Z 07002KT 8000 NSC 11/10 Q1020 NOSIG

Aviation forecast (TAF) for Brussels Airport

Retrieved 2019-10-23 00:00 UTC (2 hours ago):

TAF EBBR 222310Z 2300/2406 06005KT CAVOK PROB30 TEMPO 2300/2306 4000 BR PROB30 TEMPO 2320/2401 4500 BR